AVA9353 SKMR-SKRG
Flight info
| Callsign | AVA9353 |
|---|---|
| Flight time | 0h 33m |
| Altitude | 21000 |
| Route | AKPEK2F AKPEK AKPEK4C |
| Aircraft | A320/M-SDE3FGHIRWY/LB1 |
Departure
| Time | 2026-05-06 15:47 |
|---|---|
| Airport | Los Garzones Airport (SKMR) |
Arrival
| Time | 2026-05-06 16:21 |
|---|---|
| Airport | Jose Maria Córdova International Airport (SKRG) |
| Time | Latitude | Longitude | Altitude | Speed | Heading |
|---|---|---|---|---|---|
| 2026-05-06 15:19 | 8.82541 | -75.82547 | 32 ft | 0 kts | 48° |
| 2026-05-06 15:39 | 8.82527 | -75.82563 | 29 ft | 4 kts | 44° |
| 2026-05-06 15:40 | 8.82506 | -75.82578 | 31 ft | 4 kts | 9° |
| 2026-05-06 15:40 | 8.82488 | -75.82573 | 29 ft | 4 kts | 318° |
| 2026-05-06 15:40 | 8.82468 | -75.82554 | 29 ft | 4 kts | 318° |
| 2026-05-06 15:40 | 8.82448 | -75.82536 | 30 ft | 4 kts | 318° |
| 2026-05-06 15:41 | 8.82428 | -75.82518 | 30 ft | 4 kts | 317° |
| 2026-05-06 15:41 | 8.82420 | -75.82511 | 31 ft | 0 kts | 317° |
| 2026-05-06 15:42 | 8.82421 | -75.82512 | 30 ft | 1 kts | 317° |
| 2026-05-06 15:43 | 8.82446 | -75.82535 | 29 ft | 8 kts | 317° |
| 2026-05-06 15:43 | 8.82456 | -75.82545 | 30 ft | 0 kts | 317° |
| 2026-05-06 15:43 | 8.82464 | -75.82581 | 31 ft | 11 kts | 263° |
| 2026-05-06 15:44 | 8.82454 | -75.82658 | 30 ft | 4 kts | 252° |
| 2026-05-06 15:44 | 8.82432 | -75.82649 | 30 ft | 9 kts | 153° |
| 2026-05-06 15:44 | 8.82364 | -75.82587 | 30 ft | 14 kts | 137° |
| 2026-05-06 15:44 | 8.82295 | -75.82525 | 30 ft | 13 kts | 139° |
| 2026-05-06 15:45 | 8.82201 | -75.82434 | 31 ft | 24 kts | 137° |
| 2026-05-06 15:45 | 8.82060 | -75.82312 | 29 ft | 28 kts | 138° |
| 2026-05-06 15:45 | 8.81909 | -75.82173 | 29 ft | 30 kts | 137° |
| 2026-05-06 15:45 | 8.81755 | -75.82035 | 28 ft | 29 kts | 138° |
| 2026-05-06 15:46 | 8.81620 | -75.81913 | 28 ft | 14 kts | 125° |
| 2026-05-06 15:46 | 8.81572 | -75.81854 | 28 ft | 4 kts | 192° |
| 2026-05-06 15:46 | 8.81584 | -75.81881 | 28 ft | 13 kts | 313° |
| 2026-05-06 15:46 | 8.81850 | -75.82122 | 28 ft | 90 kts | 318° |
| 2026-05-06 15:47 | 8.82481 | -75.82696 | 32 ft | 151 kts | 318° |
| 2026-05-06 15:47 | 8.83297 | -75.83447 | 646 ft | 157 kts | 317° |
| 2026-05-06 15:47 | 8.83970 | -75.84313 | 1264 ft | 162 kts | 288° |
| 2026-05-06 15:47 | 8.83994 | -75.85501 | 1594 ft | 183 kts | 250° |
| 2026-05-06 15:48 | 8.83133 | -75.86514 | 1859 ft | 206 kts | 205° |
| 2026-05-06 15:48 | 8.81656 | -75.86770 | 2136 ft | 229 kts | 181° |
| 2026-05-06 15:48 | 8.79976 | -75.86710 | 2514 ft | 254 kts | 176° |
| 2026-05-06 15:48 | 8.78157 | -75.86564 | 3191 ft | 266 kts | 174° |
| 2026-05-06 15:49 | 8.76300 | -75.86402 | 4087 ft | 269 kts | 173° |
| 2026-05-06 15:49 | 8.74421 | -75.86245 | 4998 ft | 272 kts | 173° |
| 2026-05-06 15:49 | 8.72540 | -75.86100 | 5846 ft | 276 kts | 174° |
| 2026-05-06 15:49 | 8.70617 | -75.85965 | 6684 ft | 279 kts | 174° |
| 2026-05-06 15:50 | 8.68670 | -75.85840 | 7477 ft | 282 kts | 174° |
| 2026-05-06 15:50 | 8.66696 | -75.85721 | 8259 ft | 286 kts | 174° |
| 2026-05-06 15:50 | 8.64691 | -75.85603 | 9038 ft | 290 kts | 174° |
| 2026-05-06 15:50 | 8.62660 | -75.85482 | 9811 ft | 294 kts | 173° |
| 2026-05-06 15:51 | 8.60583 | -75.85353 | 10285 ft | 309 kts | 173° |
| 2026-05-06 15:51 | 8.58356 | -75.85212 | 10479 ft | 332 kts | 173° |
| 2026-05-06 15:51 | 8.56005 | -75.85067 | 10933 ft | 343 kts | 173° |
| 2026-05-06 15:51 | 8.53601 | -75.84925 | 11581 ft | 347 kts | 173° |
| 2026-05-06 15:52 | 8.51179 | -75.84785 | 12261 ft | 350 kts | 173° |
| 2026-05-06 15:52 | 8.48740 | -75.84642 | 12936 ft | 353 kts | 173° |
| 2026-05-06 15:52 | 8.46284 | -75.84497 | 13598 ft | 355 kts | 173° |
| 2026-05-06 15:52 | 8.43805 | -75.84350 | 14194 ft | 358 kts | 173° |
| 2026-05-06 15:53 | 8.41305 | -75.84199 | 14746 ft | 362 kts | 173° |
| 2026-05-06 15:53 | 8.38813 | -75.84047 | 15280 ft | 365 kts | 173° |
| 2026-05-06 15:53 | 8.36266 | -75.83891 | 15821 ft | 369 kts | 173° |
| 2026-05-06 15:53 | 8.33692 | -75.83734 | 16363 ft | 373 kts | 173° |
| 2026-05-06 15:54 | 8.31086 | -75.83577 | 16898 ft | 376 kts | 173° |
| 2026-05-06 15:54 | 8.28460 | -75.83418 | 17425 ft | 380 kts | 173° |
| 2026-05-06 15:54 | 8.25806 | -75.83259 | 17950 ft | 384 kts | 173° |
| 2026-05-06 15:54 | 8.23129 | -75.83100 | 18440 ft | 387 kts | 173° |
| 2026-05-06 15:55 | 8.20425 | -75.82937 | 18899 ft | 391 kts | 173° |
| 2026-05-06 15:55 | 8.17701 | -75.82771 | 19370 ft | 394 kts | 173° |
| 2026-05-06 15:55 | 8.14955 | -75.82604 | 19826 ft | 396 kts | 174° |
| 2026-05-06 15:55 | 8.12192 | -75.82438 | 20278 ft | 400 kts | 174° |
| 2026-05-06 15:56 | 8.09407 | -75.82272 | 20720 ft | 403 kts | 174° |
| 2026-05-06 15:56 | 8.06601 | -75.82106 | 20908 ft | 404 kts | 174° |
| 2026-05-06 15:56 | 8.03800 | -75.81943 | 20957 ft | 402 kts | 174° |
| 2026-05-06 15:56 | 8.01010 | -75.81780 | 20951 ft | 401 kts | 174° |
| 2026-05-06 15:57 | 7.98231 | -75.81553 | 20951 ft | 399 kts | 168° |
| 2026-05-06 15:57 | 7.95499 | -75.81076 | 20952 ft | 399 kts | 167° |
| 2026-05-06 15:57 | 7.92765 | -75.80593 | 20963 ft | 399 kts | 167° |
| 2026-05-06 15:57 | 7.90033 | -75.80113 | 20960 ft | 399 kts | 167° |
| 2026-05-06 15:58 | 7.87294 | -75.79634 | 20960 ft | 399 kts | 167° |
| 2026-05-06 15:58 | 7.84513 | -75.79150 | 20964 ft | 413 kts | 167° |
| 2026-05-06 15:58 | 7.81626 | -75.78647 | 20962 ft | 428 kts | 168° |
| 2026-05-06 15:58 | 7.78642 | -75.78127 | 20975 ft | 441 kts | 168° |
| 2026-05-06 15:59 | 7.75576 | -75.77593 | 20975 ft | 453 kts | 168° |
| 2026-05-06 15:59 | 7.72436 | -75.77046 | 20978 ft | 463 kts | 168° |
| 2026-05-06 15:59 | 7.69234 | -75.76487 | 20970 ft | 468 kts | 168° |
| 2026-05-06 15:59 | 7.66046 | -75.75932 | 20974 ft | 470 kts | 168° |
| 2026-05-06 16:00 | 7.62817 | -75.75373 | 20994 ft | 471 kts | 168° |
| 2026-05-06 16:00 | 7.59588 | -75.74815 | 20997 ft | 471 kts | 168° |
| 2026-05-06 16:00 | 7.56353 | -75.74258 | 21003 ft | 471 kts | 168° |
| 2026-05-06 16:00 | 7.53123 | -75.73699 | 20995 ft | 471 kts | 168° |
| 2026-05-06 16:01 | 7.49895 | -75.73136 | 21025 ft | 471 kts | 168° |
| 2026-05-06 16:01 | 7.46655 | -75.72569 | 21018 ft | 472 kts | 168° |
| 2026-05-06 16:01 | 7.43425 | -75.72003 | 21014 ft | 471 kts | 168° |
| 2026-05-06 16:01 | 7.40193 | -75.71436 | 21012 ft | 471 kts | 168° |
| 2026-05-06 16:02 | 7.36962 | -75.70872 | 21021 ft | 471 kts | 168° |
| 2026-05-06 16:02 | 7.33735 | -75.70313 | 21031 ft | 471 kts | 168° |
| 2026-05-06 16:02 | 7.30507 | -75.69753 | 21025 ft | 471 kts | 168° |
| 2026-05-06 16:02 | 7.27279 | -75.69192 | 21026 ft | 471 kts | 168° |
| 2026-05-06 16:03 | 7.24046 | -75.68630 | 21025 ft | 471 kts | 168° |
| 2026-05-06 16:03 | 7.20815 | -75.68069 | 21026 ft | 471 kts | 168° |
| 2026-05-06 16:03 | 7.17591 | -75.67509 | 21027 ft | 471 kts | 168° |
| 2026-05-06 16:03 | 7.14355 | -75.66946 | 21026 ft | 471 kts | 168° |
| 2026-05-06 16:04 | 7.11122 | -75.66384 | 21030 ft | 472 kts | 168° |
| 2026-05-06 16:04 | 7.07889 | -75.65821 | 21032 ft | 472 kts | 168° |
| 2026-05-06 16:04 | 7.04646 | -75.65259 | 21057 ft | 473 kts | 168° |
| 2026-05-06 16:04 | 7.01410 | -75.64699 | 21053 ft | 472 kts | 168° |
| 2026-05-06 16:05 | 6.98174 | -75.64139 | 21050 ft | 472 kts | 168° |
| 2026-05-06 16:05 | 6.94938 | -75.63576 | 21042 ft | 472 kts | 168° |
| 2026-05-06 16:05 | 6.91705 | -75.63012 | 21064 ft | 472 kts | 168° |
| 2026-05-06 16:05 | 6.88470 | -75.62449 | 21066 ft | 472 kts | 168° |
| 2026-05-06 16:06 | 6.85234 | -75.61887 | 21076 ft | 472 kts | 168° |
| 2026-05-06 16:06 | 6.81998 | -75.61325 | 21072 ft | 472 kts | 168° |
| 2026-05-06 16:06 | 6.78755 | -75.60762 | 21075 ft | 472 kts | 168° |
| 2026-05-06 16:06 | 6.75513 | -75.60206 | 21090 ft | 472 kts | 168° |
| 2026-05-06 16:07 | 6.72309 | -75.59662 | 21088 ft | 473 kts | 168° |
| 2026-05-06 16:07 | 6.69069 | -75.59119 | 21091 ft | 473 kts | 168° |
| 2026-05-06 16:07 | 6.65822 | -75.58574 | 21097 ft | 473 kts | 168° |
| 2026-05-06 16:07 | 6.62574 | -75.58028 | 21105 ft | 473 kts | 168° |
| 2026-05-06 16:08 | 6.59333 | -75.57478 | 21103 ft | 473 kts | 168° |
| 2026-05-06 16:08 | 6.56088 | -75.56922 | 21104 ft | 473 kts | 168° |
| 2026-05-06 16:08 | 6.52845 | -75.56368 | 21105 ft | 473 kts | 168° |
| 2026-05-06 16:08 | 6.49591 | -75.55814 | 21105 ft | 473 kts | 168° |
| 2026-05-06 16:09 | 6.46345 | -75.55261 | 21099 ft | 473 kts | 168° |
| 2026-05-06 16:09 | 6.43100 | -75.54709 | 21100 ft | 473 kts | 168° |
| 2026-05-06 16:09 | 6.39850 | -75.54195 | 21105 ft | 474 kts | 172° |
| 2026-05-06 16:09 | 6.36553 | -75.54072 | 21100 ft | 475 kts | 177° |
| 2026-05-06 16:10 | 6.33248 | -75.54011 | 21092 ft | 475 kts | 177° |
| 2026-05-06 16:10 | 6.29941 | -75.53953 | 21261 ft | 475 kts | 177° |
| 2026-05-06 16:10 | 6.26641 | -75.53899 | 21265 ft | 474 kts | 177° |
| 2026-05-06 16:10 | 6.23345 | -75.53846 | 21260 ft | 474 kts | 176° |
| 2026-05-06 16:11 | 6.20039 | -75.53790 | 21255 ft | 474 kts | 177° |
| 2026-05-06 16:11 | 6.16742 | -75.53733 | 21114 ft | 474 kts | 177° |
| 2026-05-06 16:11 | 6.13466 | -75.53676 | 20497 ft | 467 kts | 176° |
| 2026-05-06 16:11 | 6.10238 | -75.53635 | 19771 ft | 462 kts | 177° |
| 2026-05-06 16:12 | 6.07042 | -75.53641 | 19238 ft | 455 kts | 178° |
| 2026-05-06 16:12 | 6.03946 | -75.53683 | 18320 ft | 438 kts | 178° |
| 2026-05-06 16:12 | 6.00923 | -75.53737 | 17001 ft | 431 kts | 178° |
| 2026-05-06 16:12 | 5.97953 | -75.53787 | 15798 ft | 423 kts | 178° |
| 2026-05-06 16:13 | 5.95035 | -75.53825 | 14645 ft | 414 kts | 178° |
| 2026-05-06 16:13 | 5.92179 | -75.53851 | 13628 ft | 409 kts | 176° |
| 2026-05-06 16:13 | 5.89439 | -75.53474 | 12843 ft | 395 kts | 158° |
| 2026-05-06 16:13 | 5.87144 | -75.52087 | 12110 ft | 383 kts | 133° |
| 2026-05-06 16:14 | 5.85779 | -75.49947 | 11871 ft | 350 kts | 108° |
| 2026-05-06 16:14 | 5.85547 | -75.47632 | 11753 ft | 322 kts | 83° |
| 2026-05-06 16:14 | 5.85977 | -75.45529 | 11766 ft | 293 kts | 78° |
| 2026-05-06 16:14 | 5.86664 | -75.43716 | 11785 ft | 269 kts | 55° |
| 2026-05-06 16:15 | 5.88088 | -75.42617 | 11800 ft | 254 kts | 25° |
| 2026-05-06 16:15 | 5.89762 | -75.42240 | 11693 ft | 246 kts | 10° |
| 2026-05-06 16:15 | 5.91458 | -75.42150 | 11323 ft | 240 kts | 4° |
| 2026-05-06 16:15 | 5.93097 | -75.42156 | 11021 ft | 231 kts | 4° |
| 2026-05-06 16:16 | 5.94673 | -75.42171 | 10772 ft | 222 kts | 5° |
| 2026-05-06 16:16 | 5.96194 | -75.42182 | 10518 ft | 214 kts | 4° |
| 2026-05-06 16:16 | 5.97612 | -75.42192 | 10277 ft | 195 kts | 3° |
| 2026-05-06 16:16 | 5.98916 | -75.42201 | 10052 ft | 181 kts | 4° |
| 2026-05-06 16:17 | 6.00147 | -75.42208 | 9829 ft | 175 kts | 4° |
| 2026-05-06 16:17 | 6.01358 | -75.42215 | 9598 ft | 174 kts | 4° |
| 2026-05-06 16:17 | 6.02570 | -75.42222 | 9406 ft | 173 kts | 2° |
| 2026-05-06 16:17 | 6.03767 | -75.42230 | 9181 ft | 172 kts | 4° |
| 2026-05-06 16:18 | 6.04967 | -75.42237 | 8972 ft | 174 kts | 4° |
| 2026-05-06 16:18 | 6.06176 | -75.42245 | 8764 ft | 174 kts | 3° |
| 2026-05-06 16:18 | 6.07386 | -75.42253 | 8552 ft | 173 kts | 2° |
| 2026-05-06 16:18 | 6.08594 | -75.42261 | 8332 ft | 173 kts | 2° |
| 2026-05-06 16:19 | 6.09799 | -75.42269 | 8119 ft | 172 kts | 4° |
| 2026-05-06 16:19 | 6.10995 | -75.42277 | 7857 ft | 171 kts | 4° |
| 2026-05-06 16:19 | 6.12168 | -75.42284 | 7623 ft | 169 kts | 1° |
| 2026-05-06 16:19 | 6.13336 | -75.42295 | 7368 ft | 167 kts | 1° |
| 2026-05-06 16:20 | 6.14504 | -75.42300 | 7100 ft | 165 kts | 0° |
| 2026-05-06 16:20 | 6.15634 | -75.42306 | 6983 ft | 151 kts | 0° |
| 2026-05-06 16:20 | 6.16522 | -75.42313 | 6997 ft | 103 kts | 360° |
| 2026-05-06 16:20 | 6.17073 | -75.42318 | 7020 ft | 63 kts | 359° |
| 2026-05-06 16:21 | 6.17445 | -75.42319 | 7025 ft | 37 kts | 360° |
| 2026-05-06 16:21 | 6.17570 | -75.42348 | 7023 ft | 13 kts | 292° |
| 2026-05-06 16:21 | 6.17572 | -75.42456 | 7019 ft | 16 kts | 269° |
| 2026-05-06 16:21 | 6.17513 | -75.42531 | 7021 ft | 15 kts | 212° |
| 2026-05-06 16:22 | 6.17416 | -75.42594 | 7017 ft | 18 kts | 213° |
| 2026-05-06 16:22 | 6.17298 | -75.42618 | 7016 ft | 18 kts | 180° |
| 2026-05-06 16:22 | 6.17179 | -75.42619 | 7018 ft | 16 kts | 179° |
| 2026-05-06 16:22 | 6.17101 | -75.42617 | 7016 ft | 5 kts | 200° |
| 2026-05-06 16:23 | 6.17099 | -75.42644 | 7018 ft | 3 kts | 277° |
| 2026-05-06 16:23 | 6.17103 | -75.42669 | 7019 ft | 4 kts | 279° |
| 2026-05-06 16:23 | 6.17106 | -75.42685 | 7017 ft | 0 kts | 280° |